Latest Coastal Weather Observations for Devonport Airport

IDV60701

Issued at 1:12 am EST Thursday 3 September 2026 (issued every 10 minutes, with the page automatically refreshed every 10 minutes)

About coastal observations | Map of coastal stations | Coastal observations for VIC | Marine services | Other Formats
Station Details ID: 091126 Name: DEVONPORT AIRPORT Lat: -41.17 Lon: 146.43 Height: 8.0 m
Data from the previous 72 hours. | See also: Recent months at Devonport Airport
Date/Time
EST
Wind Sea
Height
m
Swell Vis
km
Cloud Weather Temp
°C
Press
MSL
hPa
Rain since
9am
mm
Dir  Spd
kts
Gust
kts
Height
m
Period
s
Dir
03/01:10am NW 25 32 - - - - 6 Partly cloudy - 12.0 1002.9 4.0
03/01:06am NW 26 32 - - - - 10 Partly cloudy - 12.1 1003.0 4.0
03/01:00am NW 26 34 - - - - 10 Partly cloudy - 12.3 1002.9 4.0
03/12:58am NW 25 34 - - - - 10 Partly cloudy - 12.3 1002.9 4.0
03/12:54am NW 24 34 - - - - 10 Partly cloudy - 12.3 1003.0 4.0
03/12:42am WNW 22 28 - - - - 6 Partly cloudy - 12.3 1003.1 4.0
03/12:41am WNW 23 30 - - - - 7 Partly cloudy - 12.3 1003.1 4.0
03/12:30am WNW 23 29 - - - - 5 Partly cloudy - 12.0 1003.4 4.0
03/12:09am NW 19 28 - - - - 6 Partly cloudy - 12.2 1003.6 3.8
03/12:05am NW 18 23 - - - - 10 Partly cloudy - 12.2 1003.7 3.8
03/12:00am NW 19 24 - - - - 10 Cloudy Rain 12.2 1003.9 3.8
 
Date/Time
EST
Wind Sea
Height
m
Swell Vis
km
Cloud Weather Temp
°C
Press
MSL
hPa
Rain since
9am
mm
Dir  Spd
kts
Gust
kts
Height
m
Period
s
Dir
02/11:56pm NW 20 25 - - - - 10 Mostly clear - 12.1 1004.1 3.8
02/11:30pm WNW 19 25 - - - - 10 Mostly clear - 11.8 1004.8 3.8
02/11:25pm WNW 18 23 - - - - 10 Partly cloudy - 11.6 1004.9 3.8
02/11:00pm WNW 21 30 - - - - 2 Partly cloudy - 11.5 1005.2 3.6
02/10:51pm NW 21 27 - - - - 5 Partly cloudy - 11.7 1005.3 3.4
02/10:47pm NW 21 27 - - - - 10 Partly cloudy - 11.8 1005.3 3.4
02/10:37pm NW 24 32 - - - - 6 Partly cloudy - 11.7 1005.6 3.4
02/10:30pm NW 25 33 - - - - 4 Partly cloudy - 11.5 1005.5 3.2
02/10:24pm NW 22 32 - - - - 5 Mostly clear - 11.5 1005.6 3.2
02/10:00pm WNW 19 26 - - - - 2 Partly cloudy - 11.6 1006.2 3.0
02/09:48pm NW 19 24 - - - - 5 Partly cloudy - 11.7 1006.3 1.2
02/09:30pm NW 21 25 - - - - 10 Mostly clear - 11.6 1006.3 1.2
02/09:24pm NW 19 25 - - - - 10 Partly cloudy - 11.4 1006.4 1.2
02/09:18pm NW 20 27 - - - - 10 Partly cloudy - 11.5 1006.6 1.2
02/09:07pm WNW 18 28 - - - - 2 Partly cloudy - 11.5 1006.6 1.2
02/09:00pm WNW 18 24 - - - - 2 Cloudy Showers 11.6 1006.7 0.6
02/08:49pm NW 21 28 - - - - 6 Partly cloudy - 11.5 1006.7 0.2
02/08:40pm NW 24 29 - - - - 10 Partly cloudy - 11.6 1006.7 0.2
02/08:30pm WNW 18 28 - - - - 10 Partly cloudy - 11.8 1006.7 0.2
02/08:11pm NW 19 24 - - - - 10 Partly cloudy - 12.0 1006.9 0.2
02/08:00pm NW 18 23 - - - - 10 Partly cloudy - 11.8 1006.9 0.2
02/07:30pm WNW 20 26 - - - - 10 Partly cloudy - 11.9 1006.7 0.2
02/07:00pm WNW 18 22 - - - - 10 Mostly clear - 11.6 1006.8 0.2
02/06:30pm WNW 20 27 - - - - 10 Partly cloudy - 12.3 1007.0 0.2
02/06:23pm NW 19 24 - - - - 10 Mostly clear - 12.2 1007.1 0.2
02/06:09pm NW 17 22 - - - - 10 Partly cloudy - 12.2 1007.1 0.2
02/06:00pm WNW 18 24 - - - - 10 Cloudy - 12.2 1007.1 0.2
02/05:30pm NW 21 26 - - - - 10 Mostly clear - 12.0 1006.9 0.2
02/05:00pm NW 16 21 - - - - 10 Mostly clear - 11.7 1007.1 0.2
02/04:37pm WNW 15 18 - - - - 10 Partly cloudy - 11.4 1007.2 0.2
02/04:30pm WNW 16 19 - - - - 10 Partly cloudy - 11.3 1007.3 0.2
02/04:29pm WNW 16 20 - - - - 10 Partly cloudy - 11.3 1007.3 0.2
02/04:17pm WNW 19 24 - - - - 3 Partly cloudy - 11.4 1007.6 0.0
02/04:13pm WNW 19 24 - - - - 6 Partly cloudy - 11.5 1007.5 0.0
02/04:00pm WNW 18 23 - - - - 10 Partly cloudy - 12.4 1007.6 0.0
02/03:30pm WNW 17 21 - - - - 10 Cloudy - 12.5 1007.7 0.0
02/03:00pm WNW 17 22 - - - - 10 Cloudy - 13.2 1007.9 0.0
02/02:30pm WNW 18 24 - - - - 10 Cloudy - 12.9 1007.9 0.0
02/02:00pm WNW 21 28 - - - - 10 Partly cloudy - 12.8 1007.9 0.0
02/01:30pm NW 22 27 - - - - 10 Mostly clear - 12.6 1008.4 0.0
02/01:04pm NW 23 29 - - - - 10 Mostly clear - 12.3 1008.7 0.0
02/01:00pm NW 23 32 - - - - 10 Partly cloudy - 12.5 1008.7 0.0
02/12:53pm NW 16 32 - - - - 10 Mostly clear - 12.7 1008.7 0.0
02/12:30pm NW 17 23 - - - - 10 Mostly clear - 12.9 1009.1 0.0
02/12:00pm NW 17 20 - - - - 10 Cloudy - 13.1 1009.2 0.0
02/11:30am NW 16 21 - - - - 10 Partly cloudy - 12.0 1009.7 0.0
02/11:00am WNW 18 23 - - - - 10 Partly cloudy - 13.3 1009.9 0.0
02/10:30am NW 17 21 - - - - 10 Partly cloudy - 12.3 1010.0 0.0
02/10:00am NW 17 21 - - - - 10 Mostly clear - 12.2 1010.2 0.0
02/09:30am WNW 15 17 - - - - 10 Partly cloudy - 12.0 1010.2 0.0
02/09:00am WNW 14 19 - - - - 10 Partly cloudy - 11.3 1010.5 2.2
02/08:30am WNW 13 17 - - - - 10 - - 11.2 1010.2 2.2
02/08:00am WNW 14 17 - - - - 10 - - 10.9 1010.1 2.2
02/07:30am WNW 10 13 - - - - 10 Partly cloudy - 9.9 1009.7 2.2
02/07:00am W 8 11 - - - - 10 Partly cloudy - 9.5 1009.7 2.2
02/06:30am W 9 13 - - - - 10 - - 8.8 1009.0 2.2
02/06:00am WNW 14 17 - - - - 10 Mostly clear - 9.6 1009.0 2.2
02/05:30am WNW 15 18 - - - - 10 Mostly clear - 9.7 1008.8 2.2
02/05:00am WNW 15 17 - - - - 10 - - 9.6 1008.6 2.2
02/04:30am W 13 17 - - - - 10 Mostly clear - 9.6 1008.1 2.2
02/04:00am WNW 13 18 - - - - 10 - - 9.9 1007.9 2.2
02/03:30am W 14 18 - - - - 10 Partly cloudy - 9.7 1007.7 2.2
02/03:00am W 14 17 - - - - 10 Partly cloudy - 10.1 1007.8 2.2
02/02:30am W 14 16 - - - - 10 - - 9.7 1007.6 2.2
02/02:00am W 16 19 - - - - 10 - - 10.4 1007.5 2.2
02/01:30am W 18 23 - - - - 10 - - 11.0 1007.1 2.2
02/01:00am WNW 19 23 - - - - 10 - - 11.7 1006.5 2.2
02/12:30am WNW 19 23 - - - - 10 - - 12.2 1006.3 2.2
02/12:00am WNW 18 22 - - - - 10 - - 12.6 1006.1 2.2
 
Date/Time
EST
Wind Sea
Height
m
Swell Vis
km
Cloud Weather Temp
°C
Press
MSL
hPa
Rain since
9am
mm
Dir  Spd
kts
Gust
kts
Height
m
Period
s
Dir
01/11:30pm NW 16 21 - - - - 10 Mostly clear - 12.8 1006.0 2.2
01/11:00pm NW 16 19 - - - - 10 Partly cloudy - 13.0 1006.2 2.2
01/10:45pm NW 18 21 - - - - 10 Mostly clear - 13.1 1006.2 2.2
01/10:31pm NW 21 27 - - - - 10 Partly cloudy - 13.3 1006.3 2.2
01/10:30pm NW 22 28 - - - - 10 Partly cloudy - 13.3 1006.2 2.2
01/10:28pm NW 22 28 - - - - 10 Partly cloudy - 13.3 1006.2 2.2
01/10:17pm NW 25 35 - - - - 4 Partly cloudy - 13.3 1006.2 2.2
01/10:06pm NW 26 35 - - - - 6 Cloudy - 13.3 1006.2 2.2
01/10:00pm NW 24 30 - - - - 8 Cloudy - 13.3 1006.4 2.2
01/09:30pm NW 28 35 - - - - 8 Cloudy - 13.4 1006.8 2.2
01/09:27pm NW 28 35 - - - - 8 Cloudy - 13.5 1006.7 2.2
01/09:08pm NW 27 38 - - - - 10 Cloudy - 13.5 1006.6 2.2
01/09:00pm NW 25 33 - - - - 8 Mostly cloudy Showers 13.4 1006.7 2.2
01/08:53pm NW 24 31 - - - - 8 Partly cloudy - 13.4 1006.8 2.2
01/08:30pm NW 22 28 - - - - 3 Partly cloudy - 13.3 1006.7 1.8
01/08:18pm NW 22 29 - - - - 6 Partly cloudy - 13.4 1006.9 1.6
01/08:07pm NW 22 25 - - - - 7 Partly cloudy - 13.5 1007.1 1.6
01/08:02pm NW 21 27 - - - - 8 Partly cloudy - 13.4 1007.1 1.6
01/08:00pm NW 21 27 - - - - 8 Partly cloudy - 13.4 1007.1 1.6
01/07:58pm NW 21 27 - - - - 8 Partly cloudy - 13.5 1007.0 1.6
01/07:35pm NW 20 24 - - - - 6 Partly cloudy - 13.4 1007.1 1.4
01/07:30pm NW 20 25 - - - - 7 Partly cloudy - 13.4 1007.2 1.4
01/07:25pm NW 21 30 - - - - 8 Partly cloudy - 13.4 1007.2 1.4
01/07:19pm NW 22 30 - - - - 8 Cloudy - 13.5 1007.2 1.4
01/07:13pm NW 22 28 - - - - 6 Cloudy - 13.5 1007.3 1.2
01/07:00pm NW 19 25 - - - - 8 Cloudy - 13.5 1007.3 1.2
01/06:30pm NW 21 26 - - - - 10 Partly cloudy - 13.9 1007.1 0.8
01/06:00pm NW 16 20 - - - - 10 Cloudy Showers 14.0 1007.2 0.6
01/05:30pm WNW 9 16 - - - - 10 Cloudy - 13.7 1007.6 0.6
01/05:00pm WNW 9 12 - - - - 10 Mostly clear - 13.8 1007.9 0.2
01/04:30pm WNW 11 15 - - - - 10 Cloudy - 13.9 1008.3 0.2
01/04:00pm NW 7 9 - - - - 10 Mostly clear - 13.5 1008.9 0.2
01/03:30pm NW 9 12 - - - - 10 Cloudy - 13.5 1008.9 0.2
01/03:00pm NNW 9 11 - - - - 10 Cloudy Rain 13.5 1009.4 0.2
01/02:39pm NNW 5 6 - - - - 10 Mostly clear - 13.3 1009.8 0.0
01/02:30pm NW 5 7 - - - - 10 Partly cloudy - 13.5 1010.0 0.0
01/02:00pm NW 5 6 - - - - 10 Cloudy - 14.0 1010.5 0.0
01/01:30pm NNW 5 7 - - - - 10 Partly cloudy - 13.7 1011.1 0.0
01/01:00pm NW 5 7 - - - - 10 Cloudy - 13.9 1012.1 0.0
01/12:30pm NW 5 7 - - - - 10 Cloudy - 13.4 1012.9 0.0
01/12:00pm WNW 5 7 - - - - 10 Cloudy - 14.0 1013.9 0.0
01/11:30am NW 5 6 - - - - 10 Cloudy - 14.0 1014.6 0.0
01/11:00am NNE 4 6 - - - - 10 Cloudy - 13.9 1015.1 0.0
01/10:30am S 4 7 - - - - 10 Cloudy - 11.9 1015.7 0.0
01/10:00am SSE 6 7 - - - - 10 Cloudy - 11.4 1016.2 0.0
01/09:30am SSE 6 7 - - - - 10 Cloudy - 10.7 1016.9 0.0
01/09:00am SSE 7 9 - - - - 10 Cloudy - 9.9 1017.4 0.0
01/08:30am SSE 8 10 - - - - 10 Partly cloudy - 9.1 1017.9 0.0
01/08:00am SSE 8 9 - - - - 10 Cloudy - 8.7 1018.5 0.0
01/07:30am SSE 7 8 - - - - 10 Cloudy - 8.3 1018.7 0.0
01/07:00am SSE 7 8 - - - - 10 Cloudy - 8.0 1018.7 0.0
01/06:30am SSE 6 8 - - - - 10 Cloudy - 8.1 1018.8 0.0
01/06:00am S 4 5 - - - - 10 Cloudy - 8.1 1019.3 0.0
01/05:30am SW 4 6 - - - - 10 Cloudy - 8.0 1019.8 0.0
01/05:00am WSW 6 7 - - - - 10 Cloudy - 8.0 1020.2 0.0
01/04:30am WNW 10 13 - - - - 10 Cloudy - 9.1 1020.4 0.0
01/04:00am WSW 4 7 - - - - 10 Cloudy - 7.6 1020.7 0.0
01/03:30am SW 5 7 - - - - 10 Partly cloudy - 6.8 1020.8 0.0
01/03:00am WSW 4 7 - - - - 10 Mostly cloudy - 7.4 1021.4 0.0
01/02:30am WSW 5 6 - - - - 10 Cloudy - 7.5 1021.7 0.0
01/02:11am W 5 9 - - - - 10 Partly cloudy - 7.3 1022.3 0.0
01/02:00am SW 3 4 - - - - 10 Mostly clear - 6.2 1022.4 0.0
01/01:30am WSW 6 9 - - - - 10 Mostly clear - 8.0 1022.7 0.0
01/01:00am W 7 11 - - - - 10 - - 8.9 1022.8 0.0
01/12:30am WSW 5 10 - - - - 10 - - 9.0 1023.0 0.0
01/12:00am W 6 10 - - - - 10 - - 9.0 1023.0 0.0
 
Date/Time
EST
Wind Sea
Height
m
Swell Vis
km
Cloud Weather Temp
°C
Press
MSL
hPa
Rain since
9am
mm
Dir  Spd
kts
Gust
kts
Height
m
Period
s
Dir
31/11:30pm W 9 15 - - - - 10 - - 9.4 1023.5 0.0
31/11:00pm WNW 13 15 - - - - 10 - - 10.5 1023.9 0.0
31/10:30pm W 7 12 - - - - 10 - - 9.7 1024.2 0.0
31/10:00pm WSW 5 7 - - - - 10 - - 9.3 1024.4 0.0
31/09:30pm WSW 6 7 - - - - 10 - - 8.9 1024.5 0.0
31/09:00pm W 8 9 - - - - 10 - - 9.8 1024.4 0.0
31/08:30pm WNW 13 17 - - - - 10 - - 11.4 1024.3 0.0
31/08:00pm WNW 17 20 - - - - 10 - - 11.9 1024.2 0.0
31/07:30pm WNW 16 19 - - - - 10 - - 12.2 1024.3 0.0
31/07:00pm WNW 16 19 - - - - 10 - - 12.2 1024.4 0.0
31/06:30pm WNW 17 21 - - - - 10 - - 12.3 1024.3 0.0
31/06:00pm WNW 18 23 - - - - 10 - - 12.1 1024.6 0.0
31/05:30pm WNW 19 23 - - - - 10 - - 12.2 1024.6 0.0
31/05:00pm WNW 20 25 - - - - 10 - - 12.6 1024.7 0.0
31/04:30pm NW 21 27 - - - - 10 - - 13.0 1024.9 0.0
31/04:00pm WNW 18 23 - - - - 10 - - 13.6 1025.2 0.0
31/03:30pm NW 18 23 - - - - 10 - - 13.8 1025.3 0.0
31/03:00pm WNW 17 21 - - - - 10 - - 14.2 1025.7 0.0
31/02:30pm WNW 19 22 - - - - 10 - - 14.1 1025.8 0.0
31/02:00pm WNW 17 21 - - - - 10 - - 14.2 1026.1 0.0
31/01:30pm NW 16 21 - - - - 10 - - 14.7 1026.4 0.0
31/01:00pm WNW 16 21 - - - - 10 - - 14.4 1026.7 0.0
31/12:30pm NW 15 20 - - - - 10 - - 14.5 1027.3 0.0
31/12:00pm NW 12 18 - - - - 10 - - 14.4 1027.8 0.0
31/11:30am NW 15 18 - - - - 10 - - 14.0 1028.0 0.0
31/11:00am NW 14 17 - - - - 10 - - 13.8 1028.3 0.0
31/10:30am WNW 15 18 - - - - 10 - - 13.2 1028.4 0.0
31/10:00am WNW 11 13 - - - - 10 - - 13.4 1028.6 0.0
31/09:30am WNW 11 13 - - - - 10 - - 12.0 1028.5 0.0
31/09:00am WNW 11 13 - - - - 10 - - 11.4 1028.6 0.0
31/08:30am WNW 11 13 - - - - 10 - - 10.7 1028.8 0.0
31/08:00am W 5 7 - - - - 10 - - 9.4 1028.7 0.0
31/07:30am WSW 5 6 - - - - 10 - - 7.2 1028.3 0.0
31/07:00am W 6 8 - - - - 10 - - 6.6 1028.1 0.0
31/06:30am W 9 10 - - - - 10 - - 6.6 1027.9 0.0
31/06:00am W 12 14 - - - - 10 - - 7.6 1027.8 0.0
31/05:30am W 9 11 - - - - 10 - - 7.7 1027.7 0.0
31/05:00am W 8 9 - - - - 10 - - 6.2 1027.7 0.0
31/04:30am WSW 9 10 - - - - 10 - - 6.6 1027.5 0.0
31/04:00am SW 7 9 - - - - 10 - - 7.6 1027.6 0.0
31/03:30am W 10 12 - - - - 10 - - 8.0 1027.6 0.0
31/03:00am W 11 13 - - - - 10 - - 7.9 1027.5 0.0
31/02:30am W 11 13 - - - - 10 - - 8.5 1027.6 0.0
31/02:00am W 8 10 - - - - 10 - - 7.2 1028.1 0.0
31/01:30am W 11 13 - - - - 10 - - 8.3 1028.1 0.0

Other formats

Comma delimited format used in spreadsheet applications
http://www.bom.gov.au/fwo/IDV60701/IDV60701.95960.axf

JavaScript Object Notation format (JSON) in row-major order
http://www.bom.gov.au/fwo/IDV60701/IDV60701.95960.json

Data quality

Most of these data are generated automatically and are frequently updated. Quality checks on data are not normally performed. It is possible for incorrect values to appear. Refer to information at About Latest Weather Observations and please check the disclaimer before using these data.